sensor_id;sensor_type;location;lat;lon;timestamp;temperature;humidity
45983;DHT22;31711;47.158;7.346;2022-08-20T00:00:49;17.70;99.90
45983;DHT22;31711;47.158;7.346;2022-08-20T00:03:24;17.70;99.90
45983;DHT22;31711;47.158;7.346;2022-08-20T00:06:02;17.70;99.90
45983;DHT22;31711;47.158;7.346;2022-08-20T00:08:29;17.80;99.90
45983;DHT22;31711;47.158;7.346;2022-08-20T00:10:57;17.80;99.90
45983;DHT22;31711;47.158;7.346;2022-08-20T00:13:27;17.80;99.90
45983;DHT22;31711;47.158;7.346;2022-08-20T00:15:54;17.70;99.90
45983;DHT22;31711;47.158;7.346;2022-08-20T00:18:21;17.60;99.90
45983;DHT22;31711;47.158;7.346;2022-08-20T00:20:50;17.70;99.90
45983;DHT22;31711;47.158;7.346;2022-08-20T00:23:17;17.70;99.90
45983;DHT22;31711;47.158;7.346;2022-08-20T00:25:44;17.60;99.90
45983;DHT22;31711;47.158;7.346;2022-08-20T00:28:11;17.70;99.90
45983;DHT22;31711;47.158;7.346;2022-08-20T00:30:40;17.70;99.90
45983;DHT22;31711;47.158;7.346;2022-08-20T00:33:13;17.60;99.90
45983;DHT22;31711;47.158;7.346;2022-08-20T00:35:41;17.50;99.90
45983;DHT22;31711;47.158;7.346;2022-08-20T00:38:08;17.50;99.90
45983;DHT22;31711;47.158;7.346;2022-08-20T00:40:38;17.60;99.90
45983;DHT22;31711;47.158;7.346;2022-08-20T00:43:12;17.60;99.90
45983;DHT22;31711;47.158;7.346;2022-08-20T00:45:47;17.60;99.90
45983;DHT22;31711;47.158;7.346;2022-08-20T00:48:15;17.50;99.90
45983;DHT22;31711;47.158;7.346;2022-08-20T00:50:41;17.60;99.90
45983;DHT22;31711;47.158;7.346;2022-08-20T00:53:07;17.50;99.90
45983;DHT22;31711;47.158;7.346;2022-08-20T00:55:35;17.50;99.90
45983;DHT22;31711;47.158;7.346;2022-08-20T00:58:04;17.40;99.90
45983;DHT22;31711;47.158;7.346;2022-08-20T01:00:37;17.30;99.90
45983;DHT22;31711;47.158;7.346;2022-08-20T01:03:05;17.30;99.90
45983;DHT22;31711;47.158;7.346;2022-08-20T01:05:36;17.40;99.90
45983;DHT22;31711;47.158;7.346;2022-08-20T01:08:02;17.30;99.90
45983;DHT22;31711;47.158;7.346;2022-08-20T01:10:34;17.30;99.90
45983;DHT22;31711;47.158;7.346;2022-08-20T01:13:05;17.30;99.90
45983;DHT22;31711;47.158;7.346;2022-08-20T01:15:37;17.10;99.90
45983;DHT22;31711;47.158;7.346;2022-08-20T01:18:05;17.20;99.90
45983;DHT22;31711;47.158;7.346;2022-08-20T01:20:50;17.20;99.90
45983;DHT22;31711;47.158;7.346;2022-08-20T01:24:10;17.10;99.90
45983;DHT22;31711;47.158;7.346;2022-08-20T01:26:23;17.10;99.90
45983;DHT22;31711;47.158;7.346;2022-08-20T01:28:58;17.10;99.90
45983;DHT22;31711;47.158;7.346;2022-08-20T01:31:32;17.00;99.90
45983;DHT22;31711;47.158;7.346;2022-08-20T01:34:01;17.00;99.90
45983;DHT22;31711;47.158;7.346;2022-08-20T01:36:33;17.00;99.90
45983;DHT22;31711;47.158;7.346;2022-08-20T01:39:00;17.00;99.90
45983;DHT22;31711;47.158;7.346;2022-08-20T01:44:18;17.00;99.90
45983;DHT22;31711;47.158;7.346;2022-08-20T01:46:46;17.00;99.90
45983;DHT22;31711;47.158;7.346;2022-08-20T01:49:19;17.00;99.90
45983;DHT22;31711;47.158;7.346;2022-08-20T01:51:46;17.00;99.90
45983;DHT22;31711;47.158;7.346;2022-08-20T01:54:13;17.00;99.90
45983;DHT22;31711;47.158;7.346;2022-08-20T01:59:20;17.00;99.90
45983;DHT22;31711;47.158;7.346;2022-08-20T02:01:46;17.00;99.90
45983;DHT22;31711;47.158;7.346;2022-08-20T02:04:12;17.00;99.90
45983;DHT22;31711;47.158;7.346;2022-08-20T02:06:43;17.00;99.90
45983;DHT22;31711;47.158;7.346;2022-08-20T02:09:09;17.00;99.90
45983;DHT22;31711;47.158;7.346;2022-08-20T02:11:37;17.00;99.90
45983;DHT22;31711;47.158;7.346;2022-08-20T02:14:06;17.00;99.90
45983;DHT22;31711;47.158;7.346;2022-08-20T02:16:35;17.00;99.90
45983;DHT22;31711;47.158;7.346;2022-08-20T02:19:05;17.00;99.90
45983;DHT22;31711;47.158;7.346;2022-08-20T02:21:39;17.00;99.90
45983;DHT22;31711;47.158;7.346;2022-08-20T02:24:05;17.10;99.90
45983;DHT22;31711;47.158;7.346;2022-08-20T02:26:32;17.10;99.90
45983;DHT22;31711;47.158;7.346;2022-08-20T02:28:58;17.10;99.90
45983;DHT22;31711;47.158;7.346;2022-08-20T02:31:24;17.10;99.90
45983;DHT22;31711;47.158;7.346;2022-08-20T02:33:50;17.00;99.90
45983;DHT22;31711;47.158;7.346;2022-08-20T02:36:18;17.10;99.90
45983;DHT22;31711;47.158;7.346;2022-08-20T02:38:45;17.10;99.90
45983;DHT22;31711;47.158;7.346;2022-08-20T02:41:11;17.00;99.90
45983;DHT22;31711;47.158;7.346;2022-08-20T02:43:37;17.00;99.90
45983;DHT22;31711;47.158;7.346;2022-08-20T02:46:05;17.00;99.90
45983;DHT22;31711;47.158;7.346;2022-08-20T02:48:31;16.90;99.90
45983;DHT22;31711;47.158;7.346;2022-08-20T02:51:04;16.90;99.90
45983;DHT22;31711;47.158;7.346;2022-08-20T02:53:33;17.00;99.90
45983;DHT22;31711;47.158;7.346;2022-08-20T02:56:00;17.00;99.90
45983;DHT22;31711;47.158;7.346;2022-08-20T02:58:26;17.00;99.90
45983;DHT22;31711;47.158;7.346;2022-08-20T03:00:52;17.10;99.90
45983;DHT22;31711;47.158;7.346;2022-08-20T03:03:19;17.20;99.90
45983;DHT22;31711;47.158;7.346;2022-08-20T03:05:48;17.20;99.90
45983;DHT22;31711;47.158;7.346;2022-08-20T03:08:15;17.30;99.90
45983;DHT22;31711;47.158;7.346;2022-08-20T03:10:43;17.30;99.90
45983;DHT22;31711;47.158;7.346;2022-08-20T03:13:09;17.30;99.90
45983;DHT22;31711;47.158;7.346;2022-08-20T03:15:39;17.30;99.90
45983;DHT22;31711;47.158;7.346;2022-08-20T03:18:06;17.30;99.90
45983;DHT22;31711;47.158;7.346;2022-08-20T03:20:32;17.30;99.90
45983;DHT22;31711;47.158;7.346;2022-08-20T03:22:58;17.20;99.90
45983;DHT22;31711;47.158;7.346;2022-08-20T03:25:24;17.20;99.90
45983;DHT22;31711;47.158;7.346;2022-08-20T03:27:50;17.20;99.90
45983;DHT22;31711;47.158;7.346;2022-08-20T03:30:17;17.20;99.90
45983;DHT22;31711;47.158;7.346;2022-08-20T03:32:44;17.20;99.90
45983;DHT22;31711;47.158;7.346;2022-08-20T03:35:12;17.30;99.90
45983;DHT22;31711;47.158;7.346;2022-08-20T03:37:39;17.30;99.90
45983;DHT22;31711;47.158;7.346;2022-08-20T03:40:10;17.30;99.90
45983;DHT22;31711;47.158;7.346;2022-08-20T03:42:37;17.30;99.90
45983;DHT22;31711;47.158;7.346;2022-08-20T03:45:06;17.30;99.90
45983;DHT22;31711;47.158;7.346;2022-08-20T03:47:32;17.30;99.90
45983;DHT22;31711;47.158;7.346;2022-08-20T03:49:59;17.30;99.90
45983;DHT22;31711;47.158;7.346;2022-08-20T03:52:26;17.30;99.90
45983;DHT22;31711;47.158;7.346;2022-08-20T03:54:54;17.20;99.90
45983;DHT22;31711;47.158;7.346;2022-08-20T03:57:21;17.20;99.90
45983;DHT22;31711;47.158;7.346;2022-08-20T03:59:47;17.20;99.90
45983;DHT22;31711;47.158;7.346;2022-08-20T04:02:13;17.20;99.90
45983;DHT22;31711;47.158;7.346;2022-08-20T04:04:40;17.30;99.90
45983;DHT22;31711;47.158;7.346;2022-08-20T04:07:15;17.30;99.90
45983;DHT22;31711;47.158;7.346;2022-08-20T04:09:42;17.30;99.90
45983;DHT22;31711;47.158;7.346;2022-08-20T04:12:10;17.20;99.90
45983;DHT22;31711;47.158;7.346;2022-08-20T04:14:39;17.20;99.90
45983;DHT22;31711;47.158;7.346;2022-08-20T04:17:07;17.20;99.90
45983;DHT22;31711;47.158;7.346;2022-08-20T04:19:35;17.30;99.90
45983;DHT22;31711;47.158;7.346;2022-08-20T04:22:01;17.30;99.90
45983;DHT22;31711;47.158;7.346;2022-08-20T04:24:27;17.30;99.90
45983;DHT22;31711;47.158;7.346;2022-08-20T04:26:53;17.30;99.90
45983;DHT22;31711;47.158;7.346;2022-08-20T04:29:21;17.30;99.90
45983;DHT22;31711;47.158;7.346;2022-08-20T04:31:47;17.30;99.90
45983;DHT22;31711;47.158;7.346;2022-08-20T04:34:13;17.30;99.90
45983;DHT22;31711;47.158;7.346;2022-08-20T04:36:41;17.40;99.90
45983;DHT22;31711;47.158;7.346;2022-08-20T04:39:07;17.40;99.90
45983;DHT22;31711;47.158;7.346;2022-08-20T04:41:32;17.40;99.90
45983;DHT22;31711;47.158;7.346;2022-08-20T04:43:58;17.50;99.90
45983;DHT22;31711;47.158;7.346;2022-08-20T04:46:26;17.50;99.90
45983;DHT22;31711;47.158;7.346;2022-08-20T04:48:54;17.50;99.90
45983;DHT22;31711;47.158;7.346;2022-08-20T04:51:20;17.50;99.90
45983;DHT22;31711;47.158;7.346;2022-08-20T04:53:46;17.60;99.90
45983;DHT22;31711;47.158;7.346;2022-08-20T04:56:13;17.60;99.90
45983;DHT22;31711;47.158;7.346;2022-08-20T04:58:40;17.60;99.90
45983;DHT22;31711;47.158;7.346;2022-08-20T05:01:08;17.50;99.90
45983;DHT22;31711;47.158;7.346;2022-08-20T05:03:37;17.60;99.90
45983;DHT22;31711;47.158;7.346;2022-08-20T05:06:08;17.60;99.90
45983;DHT22;31711;47.158;7.346;2022-08-20T05:08:34;17.60;99.90
45983;DHT22;31711;47.158;7.346;2022-08-20T05:11:01;17.50;99.90
45983;DHT22;31711;47.158;7.346;2022-08-20T05:13:28;17.50;99.90
45983;DHT22;31711;47.158;7.346;2022-08-20T05:15:54;17.30;99.90
45983;DHT22;31711;47.158;7.346;2022-08-20T05:18:22;17.20;99.90
45983;DHT22;31711;47.158;7.346;2022-08-20T05:20:49;17.20;99.90
45983;DHT22;31711;47.158;7.346;2022-08-20T05:23:17;17.20;99.90
45983;DHT22;31711;47.158;7.346;2022-08-20T05:25:46;17.20;99.90
45983;DHT22;31711;47.158;7.346;2022-08-20T05:28:22;17.20;99.90
45983;DHT22;31711;47.158;7.346;2022-08-20T05:30:50;17.10;99.90
45983;DHT22;31711;47.158;7.346;2022-08-20T05:33:20;17.20;99.90
45983;DHT22;31711;47.158;7.346;2022-08-20T05:35:48;17.20;99.90
45983;DHT22;31711;47.158;7.346;2022-08-20T05:38:18;17.10;99.90
45983;DHT22;31711;47.158;7.346;2022-08-20T05:40:46;17.20;99.90
45983;DHT22;31711;47.158;7.346;2022-08-20T05:43:12;17.10;99.90
45983;DHT22;31711;47.158;7.346;2022-08-20T05:45:40;17.10;99.90
45983;DHT22;31711;47.158;7.346;2022-08-20T05:48:14;17.20;99.90
45983;DHT22;31711;47.158;7.346;2022-08-20T05:50:42;17.20;99.90
45983;DHT22;31711;47.158;7.346;2022-08-20T05:53:09;17.20;99.90
45983;DHT22;31711;47.158;7.346;2022-08-20T05:55:35;17.20;99.90
45983;DHT22;31711;47.158;7.346;2022-08-20T05:58:05;17.10;99.90
45983;DHT22;31711;47.158;7.346;2022-08-20T06:00:34;17.00;99.90
45983;DHT22;31711;47.158;7.346;2022-08-20T06:03:00;17.00;99.90
45983;DHT22;31711;47.158;7.346;2022-08-20T06:05:44;17.00;99.90
45983;DHT22;31711;47.158;7.346;2022-08-20T06:08:11;16.90;99.90
45983;DHT22;31711;47.158;7.346;2022-08-20T06:10:39;16.90;99.90
45983;DHT22;31711;47.158;7.346;2022-08-20T06:13:05;17.00;99.90
45983;DHT22;31711;47.158;7.346;2022-08-20T06:15:33;17.00;99.90
45983;DHT22;31711;47.158;7.346;2022-08-20T06:17:59;17.00;99.90
45983;DHT22;31711;47.158;7.346;2022-08-20T06:20:25;17.10;99.90
45983;DHT22;31711;47.158;7.346;2022-08-20T06:22:54;17.10;99.90
45983;DHT22;31711;47.158;7.346;2022-08-20T06:25:20;17.00;99.90
45983;DHT22;31711;47.158;7.346;2022-08-20T06:27:46;17.10;99.90
45983;DHT22;31711;47.158;7.346;2022-08-20T06:30:13;17.10;99.90
45983;DHT22;31711;47.158;7.346;2022-08-20T06:32:40;17.00;99.90
45983;DHT22;31711;47.158;7.346;2022-08-20T06:35:08;17.00;99.90
45983;DHT22;31711;47.158;7.346;2022-08-20T06:37:36;17.00;99.90
45983;DHT22;31711;47.158;7.346;2022-08-20T06:40:04;17.10;99.90
45983;DHT22;31711;47.158;7.346;2022-08-20T06:42:31;17.10;99.90
45983;DHT22;31711;47.158;7.346;2022-08-20T06:44:57;17.10;99.90
45983;DHT22;31711;47.158;7.346;2022-08-20T06:47:25;17.00;99.90
45983;DHT22;31711;47.158;7.346;2022-08-20T06:49:51;17.10;99.90
45983;DHT22;31711;47.158;7.346;2022-08-20T06:52:16;17.10;99.90
45983;DHT22;31711;47.158;7.346;2022-08-20T06:54:44;17.20;99.90
45983;DHT22;31711;47.158;7.346;2022-08-20T06:57:10;17.30;99.90
45983;DHT22;31711;47.158;7.346;2022-08-20T06:59:36;17.50;99.90
45983;DHT22;31711;47.158;7.346;2022-08-20T07:02:02;17.60;99.90
45983;DHT22;31711;47.158;7.346;2022-08-20T07:04:28;17.70;99.90
45983;DHT22;31711;47.158;7.346;2022-08-20T07:06:55;17.70;99.90
45983;DHT22;31711;47.158;7.346;2022-08-20T07:09:24;17.90;99.90
45983;DHT22;31711;47.158;7.346;2022-08-20T07:11:51;18.00;99.90
45983;DHT22;31711;47.158;7.346;2022-08-20T07:14:17;18.20;99.90
45983;DHT22;31711;47.158;7.346;2022-08-20T07:16:45;18.50;99.90
45983;DHT22;31711;47.158;7.346;2022-08-20T07:19:13;18.50;99.90
45983;DHT22;31711;47.158;7.346;2022-08-20T07:21:39;18.60;99.90
45983;DHT22;31711;47.158;7.346;2022-08-20T07:24:05;18.70;99.90
45983;DHT22;31711;47.158;7.346;2022-08-20T07:26:32;18.80;99.90
45983;DHT22;31711;47.158;7.346;2022-08-20T07:28:58;18.60;99.90
45983;DHT22;31711;47.158;7.346;2022-08-20T07:31:24;18.60;99.90
45983;DHT22;31711;47.158;7.346;2022-08-20T07:34:23;18.90;99.90
45983;DHT22;31711;47.158;7.346;2022-08-20T07:36:49;19.40;99.90
45983;DHT22;31711;47.158;7.346;2022-08-20T07:39:15;19.70;99.90
45983;DHT22;31711;47.158;7.346;2022-08-20T07:41:41;20.10;99.90
45983;DHT22;31711;47.158;7.346;2022-08-20T07:44:07;20.50;99.90
45983;DHT22;31711;47.158;7.346;2022-08-20T07:46:33;20.60;99.90
45983;DHT22;31711;47.158;7.346;2022-08-20T07:48:59;20.80;99.90
45983;DHT22;31711;47.158;7.346;2022-08-20T07:51:26;20.80;99.90
45983;DHT22;31711;47.158;7.346;2022-08-20T07:53:52;20.60;99.90
45983;DHT22;31711;47.158;7.346;2022-08-20T07:56:22;20.60;99.90
45983;DHT22;31711;47.158;7.346;2022-08-20T07:58:51;19.90;99.90
45983;DHT22;31711;47.158;7.346;2022-08-20T08:01:29;19.80;99.90
45983;DHT22;31711;47.158;7.346;2022-08-20T08:03:57;19.60;99.90
45983;DHT22;31711;47.158;7.346;2022-08-20T08:06:25;19.30;99.90
45983;DHT22;31711;47.158;7.346;2022-08-20T08:08:52;19.20;99.90
45983;DHT22;31711;47.158;7.346;2022-08-20T08:11:18;19.40;99.90
45983;DHT22;31711;47.158;7.346;2022-08-20T08:13:45;19.50;99.90
45983;DHT22;31711;47.158;7.346;2022-08-20T08:16:11;19.70;99.90
45983;DHT22;31711;47.158;7.346;2022-08-20T08:18:42;19.80;99.90
45983;DHT22;31711;47.158;7.346;2022-08-20T08:21:10;20.00;99.90
45983;DHT22;31711;47.158;7.346;2022-08-20T08:23:38;20.10;99.90
45983;DHT22;31711;47.158;7.346;2022-08-20T08:26:13;20.00;99.90
45983;DHT22;31711;47.158;7.346;2022-08-20T08:28:41;20.10;99.90
45983;DHT22;31711;47.158;7.346;2022-08-20T08:31:10;20.50;99.90
45983;DHT22;31711;47.158;7.346;2022-08-20T08:33:36;20.70;99.90
45983;DHT22;31711;47.158;7.346;2022-08-20T08:36:11;20.90;99.90
45983;DHT22;31711;47.158;7.346;2022-08-20T08:38:39;21.00;99.90
45983;DHT22;31711;47.158;7.346;2022-08-20T08:41:33;21.20;99.90
45983;DHT22;31711;47.158;7.346;2022-08-20T08:44:10;21.40;99.90
45983;DHT22;31711;47.158;7.346;2022-08-20T08:46:46;21.30;99.90
45983;DHT22;31711;47.158;7.346;2022-08-20T08:49:20;21.00;99.90
45983;DHT22;31711;47.158;7.346;2022-08-20T08:51:52;21.20;99.90
45983;DHT22;31711;47.158;7.346;2022-08-20T08:54:23;21.40;99.90
45983;DHT22;31711;47.158;7.346;2022-08-20T08:56:50;21.30;99.90
45983;DHT22;31711;47.158;7.346;2022-08-20T08:59:18;21.60;99.90
45983;DHT22;31711;47.158;7.346;2022-08-20T09:01:47;22.00;99.90
45983;DHT22;31711;47.158;7.346;2022-08-20T09:04:16;22.00;99.90
45983;DHT22;31711;47.158;7.346;2022-08-20T09:06:43;21.80;99.90
45983;DHT22;31711;47.158;7.346;2022-08-20T09:09:19;21.80;99.90
45983;DHT22;31711;47.158;7.346;2022-08-20T09:11:51;21.90;99.90
45983;DHT22;31711;47.158;7.346;2022-08-20T09:14:18;21.90;99.90
45983;DHT22;31711;47.158;7.346;2022-08-20T09:16:44;21.50;99.90
45983;DHT22;31711;47.158;7.346;2022-08-20T09:19:11;21.30;99.90
45983;DHT22;31711;47.158;7.346;2022-08-20T09:21:37;21.40;99.90
45983;DHT22;31711;47.158;7.346;2022-08-20T09:24:03;21.40;99.90
45983;DHT22;31711;47.158;7.346;2022-08-20T09:26:30;21.40;99.90
45983;DHT22;31711;47.158;7.346;2022-08-20T09:28:56;21.60;99.90
45983;DHT22;31711;47.158;7.346;2022-08-20T09:31:22;21.50;99.90
45983;DHT22;31711;47.158;7.346;2022-08-20T09:33:50;21.80;99.90
45983;DHT22;31711;47.158;7.346;2022-08-20T09:36:16;21.70;99.90
45983;DHT22;31711;47.158;7.346;2022-08-20T09:38:42;21.80;99.90
45983;DHT22;31711;47.158;7.346;2022-08-20T09:41:08;22.00;99.90
45983;DHT22;31711;47.158;7.346;2022-08-20T09:43:35;22.20;99.90
45983;DHT22;31711;47.158;7.346;2022-08-20T09:46:00;22.30;99.90
45983;DHT22;31711;47.158;7.346;2022-08-20T09:48:26;22.20;99.90
45983;DHT22;31711;47.158;7.346;2022-08-20T09:50:52;22.00;99.90
45983;DHT22;31711;47.158;7.346;2022-08-20T09:53:19;22.10;99.90
45983;DHT22;31711;47.158;7.346;2022-08-20T09:55:49;22.20;99.90
45983;DHT22;31711;47.158;7.346;2022-08-20T09:58:28;22.00;99.90
45983;DHT22;31711;47.158;7.346;2022-08-20T10:00:59;21.80;99.90
45983;DHT22;31711;47.158;7.346;2022-08-20T10:03:25;22.00;99.90
45983;DHT22;31711;47.158;7.346;2022-08-20T10:05:51;22.20;99.90
45983;DHT22;31711;47.158;7.346;2022-08-20T10:08:17;22.60;99.90
45983;DHT22;31711;47.158;7.346;2022-08-20T10:10:43;22.70;99.90
45983;DHT22;31711;47.158;7.346;2022-08-20T10:13:09;22.80;99.90
45983;DHT22;31711;47.158;7.346;2022-08-20T10:15:35;22.20;99.90
45983;DHT22;31711;47.158;7.346;2022-08-20T10:18:04;22.30;99.90
45983;DHT22;31711;47.158;7.346;2022-08-20T10:20:32;22.70;99.90
45983;DHT22;31711;47.158;7.346;2022-08-20T10:23:00;22.90;99.90
45983;DHT22;31711;47.158;7.346;2022-08-20T10:25:26;23.00;99.90
45983;DHT22;31711;47.158;7.346;2022-08-20T10:27:54;22.70;99.90
45983;DHT22;31711;47.158;7.346;2022-08-20T10:30:20;22.70;99.90
45983;DHT22;31711;47.158;7.346;2022-08-20T10:32:46;22.60;99.90
45983;DHT22;31711;47.158;7.346;2022-08-20T10:35:13;22.70;99.90
45983;DHT22;31711;47.158;7.346;2022-08-20T10:37:39;22.60;99.90
45983;DHT22;31711;47.158;7.346;2022-08-20T10:40:06;22.50;99.90
45983;DHT22;31711;47.158;7.346;2022-08-20T10:42:32;22.30;99.90
45983;DHT22;31711;47.158;7.346;2022-08-20T10:44:58;22.00;99.90
45983;DHT22;31711;47.158;7.346;2022-08-20T10:47:26;21.80;99.90
45983;DHT22;31711;47.158;7.346;2022-08-20T10:49:54;21.90;99.90
45983;DHT22;31711;47.158;7.346;2022-08-20T10:52:21;21.80;99.90
45983;DHT22;31711;47.158;7.346;2022-08-20T10:54:48;22.00;99.90
45983;DHT22;31711;47.158;7.346;2022-08-20T10:57:26;22.30;99.90
45983;DHT22;31711;47.158;7.346;2022-08-20T10:59:54;22.00;99.90
45983;DHT22;31711;47.158;7.346;2022-08-20T11:02:21;22.20;99.90
45983;DHT22;31711;47.158;7.346;2022-08-20T11:04:48;22.30;99.90
45983;DHT22;31711;47.158;7.346;2022-08-20T11:07:29;22.20;99.90
45983;DHT22;31711;47.158;7.346;2022-08-20T11:09:56;22.00;99.90
45983;DHT22;31711;47.158;7.346;2022-08-20T11:12:23;21.80;99.90
45983;DHT22;31711;47.158;7.346;2022-08-20T11:14:51;22.20;99.90
45983;DHT22;31711;47.158;7.346;2022-08-20T11:17:27;22.00;99.90
45983;DHT22;31711;47.158;7.346;2022-08-20T11:19:54;22.80;99.90
45983;DHT22;31711;47.158;7.346;2022-08-20T11:22:20;23.30;99.90
45983;DHT22;31711;47.158;7.346;2022-08-20T11:24:46;23.20;99.90
45983;DHT22;31711;47.158;7.346;2022-08-20T11:27:23;23.10;99.90
45983;DHT22;31711;47.158;7.346;2022-08-20T11:29:50;23.50;99.90
45983;DHT22;31711;47.158;7.346;2022-08-20T11:32:16;23.40;99.90
45983;DHT22;31711;47.158;7.346;2022-08-20T11:34:42;23.70;99.90
45983;DHT22;31711;47.158;7.346;2022-08-20T11:37:08;24.00;99.90
45983;DHT22;31711;47.158;7.346;2022-08-20T11:39:34;23.80;99.90
45983;DHT22;31711;47.158;7.346;2022-08-20T11:42:00;23.90;99.90
45983;DHT22;31711;47.158;7.346;2022-08-20T11:44:27;23.90;99.90
45983;DHT22;31711;47.158;7.346;2022-08-20T11:46:52;23.90;99.90
45983;DHT22;31711;47.158;7.346;2022-08-20T11:49:18;24.30;99.90
45983;DHT22;31711;47.158;7.346;2022-08-20T11:51:44;23.90;99.90
45983;DHT22;31711;47.158;7.346;2022-08-20T11:54:10;23.80;99.90
45983;DHT22;31711;47.158;7.346;2022-08-20T11:56:36;23.60;99.90
45983;DHT22;31711;47.158;7.346;2022-08-20T11:59:02;23.70;99.90
45983;DHT22;31711;47.158;7.346;2022-08-20T12:01:28;23.60;99.90
45983;DHT22;31711;47.158;7.346;2022-08-20T12:03:54;23.50;99.90
45983;DHT22;31711;47.158;7.346;2022-08-20T12:06:20;23.00;99.90
45983;DHT22;31711;47.158;7.346;2022-08-20T12:08:46;22.50;99.90
45983;DHT22;31711;47.158;7.346;2022-08-20T12:11:12;22.40;99.90
45983;DHT22;31711;47.158;7.346;2022-08-20T12:13:38;22.70;99.90
45983;DHT22;31711;47.158;7.346;2022-08-20T12:16:04;22.70;99.90
45983;DHT22;31711;47.158;7.346;2022-08-20T12:18:30;22.60;99.90
45983;DHT22;31711;47.158;7.346;2022-08-20T12:20:57;22.90;99.90
45983;DHT22;31711;47.158;7.346;2022-08-20T12:23:23;22.90;99.90
45983;DHT22;31711;47.158;7.346;2022-08-20T12:25:49;22.60;99.90
45983;DHT22;31711;47.158;7.346;2022-08-20T12:28:15;22.90;99.90
45983;DHT22;31711;47.158;7.346;2022-08-20T12:30:41;22.90;99.90
45983;DHT22;31711;47.158;7.346;2022-08-20T12:33:07;22.90;99.90
45983;DHT22;31711;47.158;7.346;2022-08-20T12:35:33;22.80;99.90
45983;DHT22;31711;47.158;7.346;2022-08-20T12:38:05;23.00;99.90
45983;DHT22;31711;47.158;7.346;2022-08-20T12:40:32;23.20;99.90
45983;DHT22;31711;47.158;7.346;2022-08-20T12:42:59;23.40;99.90
45983;DHT22;31711;47.158;7.346;2022-08-20T12:45:25;23.30;99.90
45983;DHT22;31711;47.158;7.346;2022-08-20T12:47:50;23.20;99.90
45983;DHT22;31711;47.158;7.346;2022-08-20T12:50:19;23.30;99.90
45983;DHT22;31711;47.158;7.346;2022-08-20T12:52:45;23.50;99.90
45983;DHT22;31711;47.158;7.346;2022-08-20T12:55:15;23.80;99.90
45983;DHT22;31711;47.158;7.346;2022-08-20T12:57:44;24.10;99.90
45983;DHT22;31711;47.158;7.346;2022-08-20T13:00:25;24.20;99.90
45983;DHT22;31711;47.158;7.346;2022-08-20T13:02:53;24.30;99.90
45983;DHT22;31711;47.158;7.346;2022-08-20T13:05:19;24.50;99.90
45983;DHT22;31711;47.158;7.346;2022-08-20T13:07:46;24.50;99.90
45983;DHT22;31711;47.158;7.346;2022-08-20T13:10:22;24.50;99.90
45983;DHT22;31711;47.158;7.346;2022-08-20T13:12:48;24.70;99.90
45983;DHT22;31711;47.158;7.346;2022-08-20T13:15:14;24.80;99.90
45983;DHT22;31711;47.158;7.346;2022-08-20T13:17:41;24.80;99.90
45983;DHT22;31711;47.158;7.346;2022-08-20T13:20:13;25.20;99.90
45983;DHT22;31711;47.158;7.346;2022-08-20T13:22:39;25.70;99.90
45983;DHT22;31711;47.158;7.346;2022-08-20T13:25:06;26.00;99.90
45983;DHT22;31711;47.158;7.346;2022-08-20T13:27:32;26.10;99.90
45983;DHT22;31711;47.158;7.346;2022-08-20T13:30:04;26.00;99.90
45983;DHT22;31711;47.158;7.346;2022-08-20T13:32:31;25.30;99.90
45983;DHT22;31711;47.158;7.346;2022-08-20T13:34:57;25.70;99.90
45983;DHT22;31711;47.158;7.346;2022-08-20T13:37:26;25.70;99.90
45983;DHT22;31711;47.158;7.346;2022-08-20T13:39:53;26.10;99.90
45983;DHT22;31711;47.158;7.346;2022-08-20T13:42:20;26.50;99.90
45983;DHT22;31711;47.158;7.346;2022-08-20T13:44:46;26.30;99.90
45983;DHT22;31711;47.158;7.346;2022-08-20T13:47:27;26.00;99.90
45983;DHT22;31711;47.158;7.346;2022-08-20T13:50:11;26.50;99.90
45983;DHT22;31711;47.158;7.346;2022-08-20T13:52:38;26.80;99.90
45983;DHT22;31711;47.158;7.346;2022-08-20T13:55:06;26.40;99.90
45983;DHT22;31711;47.158;7.346;2022-08-20T13:57:32;26.50;99.90
45983;DHT22;31711;47.158;7.346;2022-08-20T13:59:58;26.80;99.90
45983;DHT22;31711;47.158;7.346;2022-08-20T14:02:25;27.10;99.90
45983;DHT22;31711;47.158;7.346;2022-08-20T14:04:52;26.90;99.90
45983;DHT22;31711;47.158;7.346;2022-08-20T14:07:25;27.20;99.90
45983;DHT22;31711;47.158;7.346;2022-08-20T14:09:57;27.20;99.90
45983;DHT22;31711;47.158;7.346;2022-08-20T14:12:25;27.40;99.90
45983;DHT22;31711;47.158;7.346;2022-08-20T14:14:52;27.30;99.90
45983;DHT22;31711;47.158;7.346;2022-08-20T14:19:52;26.80;99.90
45983;DHT22;31711;47.158;7.346;2022-08-20T14:22:18;26.70;99.90
45983;DHT22;31711;47.158;7.346;2022-08-20T14:24:46;26.80;99.90
45983;DHT22;31711;47.158;7.346;2022-08-20T14:27:13;27.40;99.90
45983;DHT22;31711;47.158;7.346;2022-08-20T14:29:41;27.30;99.90
45983;DHT22;31711;47.158;7.346;2022-08-20T14:32:08;27.40;99.90
45983;DHT22;31711;47.158;7.346;2022-08-20T14:34:35;26.60;99.90
45983;DHT22;31711;47.158;7.346;2022-08-20T14:37:17;25.70;99.90
45983;DHT22;31711;47.158;7.346;2022-08-20T14:39:45;25.10;99.90
45983;DHT22;31711;47.158;7.346;2022-08-20T14:42:11;24.90;99.90
45983;DHT22;31711;47.158;7.346;2022-08-20T14:44:38;24.50;99.90
45983;DHT22;31711;47.158;7.346;2022-08-20T14:47:23;24.50;99.90
45983;DHT22;31711;47.158;7.346;2022-08-20T14:49:51;24.30;99.90
45983;DHT22;31711;47.158;7.346;2022-08-20T14:52:19;24.20;99.90
45983;DHT22;31711;47.158;7.346;2022-08-20T14:54:46;24.00;99.90
45983;DHT22;31711;47.158;7.346;2022-08-20T14:57:13;23.90;99.90
45983;DHT22;31711;47.158;7.346;2022-08-20T14:59:40;23.60;99.90
45983;DHT22;31711;47.158;7.346;2022-08-20T15:02:08;23.40;99.90
45983;DHT22;31711;47.158;7.346;2022-08-20T15:04:35;23.30;99.90
45983;DHT22;31711;47.158;7.346;2022-08-20T15:07:03;23.60;99.90
45983;DHT22;31711;47.158;7.346;2022-08-20T15:09:31;23.60;99.90
45983;DHT22;31711;47.158;7.346;2022-08-20T15:11:57;23.60;99.90
45983;DHT22;31711;47.158;7.346;2022-08-20T15:14:24;23.90;99.90
45983;DHT22;31711;47.158;7.346;2022-08-20T15:16:50;24.00;99.90
45983;DHT22;31711;47.158;7.346;2022-08-20T15:19:16;24.10;99.90
45983;DHT22;31711;47.158;7.346;2022-08-20T15:21:42;24.30;99.90
45983;DHT22;31711;47.158;7.346;2022-08-20T15:24:08;24.30;99.90
45983;DHT22;31711;47.158;7.346;2022-08-20T15:26:34;24.30;99.90
45983;DHT22;31711;47.158;7.346;2022-08-20T15:29:00;24.30;99.90
45983;DHT22;31711;47.158;7.346;2022-08-20T15:31:26;24.40;99.90
45983;DHT22;31711;47.158;7.346;2022-08-20T15:33:52;24.40;99.90
45983;DHT22;31711;47.158;7.346;2022-08-20T15:36:18;24.40;99.90
45983;DHT22;31711;47.158;7.346;2022-08-20T15:38:44;24.30;99.90
45983;DHT22;31711;47.158;7.346;2022-08-20T15:41:10;24.30;99.90
45983;DHT22;31711;47.158;7.346;2022-08-20T15:43:36;24.40;99.90